Time;durP1;ratioP1;P1;durP2;ratioP2;P2;SDS_P1;SDS_P2;PMS_P1;PMS_P2;Temp;Humidity;BMP_temperature;BMP_pressure;BME280_temperature;BME280_humidity;BME280_pressure;Samples;Min_cycle;Max_cycle;Signal;HPM_P1;HPM_P2
2021/08/13 00:00:25;;;;;;;18.75;13.25;;;;;;;25.56;100.00;96674.94;5004822;28;20074;-57
2021/08/13 00:02:54;;;;;;;18.50;12.50;;;;;;;26.19;100.00;96674.25;5008363;28;20065;-53
2021/08/13 00:05:23;;;;;;;18.45;12.93;;;;;;;24.86;100.00;96659.44;5005583;28;20539;-55
2021/08/13 00:07:53;;;;;;;17.05;12.60;;;;;;;25.34;100.00;96659.34;5009845;28;20464;-52
2021/08/13 00:10:21;;;;;;;22.58;13.60;;;;;;;26.06;100.00;96658.28;5010154;28;20487;-53
2021/08/13 00:12:50;;;;;;;20.17;13.60;;;;;;;25.47;100.00;96650.19;5008536;28;20065;-51
2021/08/13 00:15:19;;;;;;;17.88;12.50;;;;;;;26.50;100.00;96647.84;4986957;28;20539;-55
2021/08/13 00:17:47;;;;;;;18.35;13.57;;;;;;;26.50;100.00;96640.56;5000194;28;20073;-52
2021/08/13 00:20:15;;;;;;;22.42;14.30;;;;;;;26.45;100.00;96635.00;5009266;28;20065;-56
2021/08/13 00:22:44;;;;;;;27.83;15.82;;;;;;;25.22;100.00;96636.88;5009292;28;20081;-54
2021/08/13 00:25:14;;;;;;;21.08;16.48;;;;;;;25.04;100.00;96629.69;5007388;28;20088;-56
2021/08/13 00:27:42;;;;;;;26.15;18.02;;;;;;;25.46;100.00;96626.09;5015438;28;20062;-56
2021/08/13 00:30:11;;;;;;;26.48;19.23;;;;;;;25.05;100.00;96633.19;5004429;28;20077;-55
2021/08/13 00:32:40;;;;;;;26.98;19.20;;;;;;;24.84;100.00;96638.09;5010558;28;20065;-55
2021/08/13 00:35:09;;;;;;;27.45;19.27;;;;;;;26.10;100.00;96637.81;5008459;28;20077;-53
2021/08/13 00:37:37;;;;;;;23.00;15.63;;;;;;;26.41;100.00;96633.84;5010161;28;20089;-51
2021/08/13 00:40:07;;;;;;;22.05;15.18;;;;;;;26.36;100.00;96641.88;5004750;28;20551;-55
2021/08/13 00:42:37;;;;;;;24.88;16.38;;;;;;;26.28;100.00;96640.34;5006174;28;20069;-51
2021/08/13 00:45:07;;;;;;;19.58;14.25;;;;;;;26.21;100.00;96650.47;5011353;28;20465;-50
2021/08/13 00:47:35;;;;;;;17.57;13.67;;;;;;;26.49;100.00;96635.38;5005286;28;20066;-57
2021/08/13 00:50:05;;;;;;;18.98;14.32;;;;;;;26.42;100.00;96645.47;5007058;28;20077;-55
2021/08/13 00:52:33;;;;;;;22.80;15.77;;;;;;;26.67;100.00;96647.88;5009013;28;20069;-54
2021/08/13 00:55:02;;;;;;;17.08;13.57;;;;;;;26.54;100.00;96646.31;5007540;28;20069;-55
2021/08/13 00:57:30;;;;;;;21.67;14.63;;;;;;;26.55;100.00;96650.63;5004545;28;20073;-57
2021/08/13 01:00:00;;;;;;;16.40;12.65;;;;;;;25.61;100.00;96656.19;5012753;28;20545;-54
2021/08/13 01:02:29;;;;;;;17.90;12.60;;;;;;;25.42;100.00;96666.25;5010816;28;20065;-54
2021/08/13 01:04:58;;;;;;;21.00;13.80;;;;;;;25.41;100.00;96664.63;5006040;28;20472;-53
2021/08/13 01:07:26;;;;;;;22.42;15.18;;;;;;;25.22;100.00;96663.88;5010945;28;20117;-55
2021/08/13 01:09:55;;;;;;;22.60;16.65;;;;;;;25.49;100.00;96666.97;5007824;28;20072;-54
2021/08/13 01:12:29;;;;;;;19.52;16.35;;;;;;;25.50;100.00;96670.50;5005509;28;20077;-54
2021/08/13 01:15:05;;;;;;;25.52;16.63;;;;;;;25.60;100.00;96683.41;5005504;28;20073;-57
2021/08/13 01:17:39;;;;;;;23.95;16.15;;;;;;;25.81;100.00;96682.88;5009665;28;20473;-53
2021/08/13 01:20:10;;;;;;;21.35;15.45;;;;;;;25.55;100.00;96684.94;5009820;28;20057;-54
2021/08/13 01:22:45;;;;;;;22.13;16.33;;;;;;;25.33;100.00;96679.28;5009081;28;20520;-57
2021/08/13 01:25:19;;;;;;;22.38;16.00;;;;;;;25.34;100.00;96678.22;5000933;28;20068;-56
2021/08/13 01:27:49;;;;;;;23.98;16.45;;;;;;;25.71;100.00;96686.13;5005265;28;20077;-54
2021/08/13 01:30:19;;;;;;;;;;;;;;;25.37;100.00;96698.56;5009997;28;20074;-52
2021/08/13 01:32:52;;;;;;;23.42;15.40;;;;;;;25.30;100.00;96690.56;5005647;28;19991;-57
2021/08/13 01:35:25;;;;;;;26.70;17.17;;;;;;;25.03;100.00;96705.47;5004814;28;20385;-51
2021/08/13 01:37:55;;;;;;;21.58;16.13;;;;;;;25.62;100.00;96711.03;5006624;28;20085;-55
2021/08/13 01:40:24;;;;;;;26.55;15.57;;;;;;;25.08;100.00;96727.19;5010095;28;20093;-55
2021/08/13 01:42:53;;;;;;;20.00;15.18;;;;;;;24.31;100.00;96743.91;5006471;28;20455;-55
2021/08/13 01:45:24;;;;;;;20.23;15.80;;;;;;;23.42;100.00;96756.72;5008616;28;20073;-55
2021/08/13 01:47:55;;;;;;;18.08;15.10;;;;;;;23.53;100.00;96768.66;4997746;28;20575;-57
2021/08/13 01:50:24;;;;;;;20.00;15.43;;;;;;;24.56;100.00;96754.63;4989553;28;20081;-54
2021/08/13 01:52:55;;;;;;;19.17;15.48;;;;;;;24.92;100.00;96747.56;5007761;28;20089;-55
2021/08/13 01:55:23;;;;;;;;;;;;;;;25.01;100.00;96738.06;5006466;28;20484;-57
2021/08/13 01:57:51;;;;;;;22.42;16.45;;;;;;;24.56;100.00;96737.66;4992779;28;19969;-53
2021/08/13 02:00:21;;;;;;;24.90;17.35;;;;;;;25.03;100.00;96729.75;4996376;28;20523;-55
2021/08/13 02:02:51;;;;;;;22.67;17.13;;;;;;;25.00;100.00;96727.53;5004912;28;20065;-52
2021/08/13 02:05:23;;;;;;;;;;;;;;;24.67;100.00;96728.78;4999472;28;20358;-53
2021/08/13 02:07:52;;;;;;;23.27;17.35;;;;;;;24.66;100.00;96724.44;4988826;28;19965;-56
2021/08/13 02:10:21;;;;;;;23.38;17.85;;;;;;;24.74;100.00;96715.22;4987518;28;20112;-55
2021/08/13 02:12:49;;;;;;;25.52;18.30;;;;;;;24.93;100.00;96713.31;5002643;28;20057;-50
2021/08/13 02:15:19;;;;;;;24.60;18.27;;;;;;;25.32;100.00;96718.13;5006725;28;20121;-55
2021/08/13 02:17:53;;;;;;;23.35;18.23;;;;;;;25.09;100.00;96720.75;5005438;28;20070;-55
2021/08/13 02:20:23;;;;;;;23.45;17.58;;;;;;;25.52;100.00;96722.41;5007183;28;20077;-58
2021/08/13 02:22:51;;;;;;;25.45;18.08;;;;;;;25.27;100.00;96719.91;5006620;28;20093;-56
2021/08/13 02:25:21;;;;;;;23.23;18.07;;;;;;;24.86;100.00;96716.91;4988579;28;20066;-58
2021/08/13 02:27:49;;;;;;;25.65;18.35;;;;;;;25.45;100.00;96730.59;5002377;28;20057;-53
2021/08/13 02:30:18;;;;;;;24.75;17.75;;;;;;;25.49;100.00;96729.06;4993035;28;20470;-54
2021/08/13 02:32:47;;;;;;;24.73;18.55;;;;;;;25.44;100.00;96739.75;4988645;28;20520;-52
2021/08/13 02:35:16;;;;;;;23.30;17.27;;;;;;;24.70;100.00;96741.00;5006405;28;20746;-54
2021/08/13 02:37:49;;;;;;;23.50;16.70;;;;;;;24.85;100.00;96727.94;5006148;28;20077;-54
2021/08/13 02:40:22;;;;;;;22.45;17.30;;;;;;;24.87;100.00;96720.44;5007865;28;20093;-55
2021/08/13 02:42:56;;;;;;;21.75;17.58;;;;;;;24.18;100.00;96719.81;5008996;28;20065;-52
2021/08/13 02:45:25;;;;;;;23.55;17.77;;;;;;;24.18;100.00;96717.09;5002623;28;20101;-49
2021/08/13 02:47:55;;;;;;;22.23;18.27;;;;;;;24.25;100.00;96717.84;5004001;28;20065;-57
2021/08/13 02:50:24;;;;;;;21.77;17.40;;;;;;;24.20;100.00;96715.03;5006174;28;20077;-55
2021/08/13 02:52:56;;;;;;;25.35;18.27;;;;;;;24.87;100.00;96709.63;5005561;28;21858;-55
2021/08/13 02:55:30;;;;;;;24.15;18.10;;;;;;;24.53;100.00;96722.72;5008902;28;20464;-56
2021/08/13 02:58:01;;;;;;;22.92;18.02;;;;;;;24.55;100.00;96720.66;5004557;28;20062;-55
2021/08/13 03:00:30;;;;;;;19.77;16.77;;;;;;;24.88;100.00;96711.31;5008156;28;20628;-50
2021/08/13 03:02:59;;;;;;;21.90;17.92;;;;;;;25.05;100.00;96709.59;5004781;28;20622;-54
2021/08/13 03:05:30;;;;;;;23.30;17.33;;;;;;;24.96;100.00;96715.53;5005595;28;20090;-50
2021/08/13 03:07:59;;;;;;;23.30;17.52;;;;;;;24.76;100.00;96705.03;5004123;28;20085;-53
2021/08/13 03:10:30;;;;;;;20.60;16.90;;;;;;;25.04;100.00;96710.63;5012901;28;20092;-54
2021/08/13 03:12:58;;;;;;;23.95;17.20;;;;;;;25.28;100.00;96700.75;5004045;28;20074;-54
2021/08/13 03:15:27;;;;;;;20.15;16.77;;;;;;;25.38;100.00;96702.06;5010961;28;20066;-57
2021/08/13 03:17:55;;;;;;;24.23;17.52;;;;;;;25.09;100.00;96716.19;5009866;28;20088;-53
2021/08/13 03:20:24;;;;;;;25.10;17.30;;;;;;;25.24;100.00;96715.78;5008981;28;20070;-54
2021/08/13 03:22:53;;;;;;;20.60;17.08;;;;;;;25.31;100.00;96724.59;5002762;28;20080;-54
2021/08/13 03:25:23;;;;;;;20.88;17.17;;;;;;;25.25;100.00;96733.59;5004278;28;20089;-56
2021/08/13 03:27:52;;;;;;;20.02;16.83;;;;;;;25.40;100.00;96732.38;4999601;28;20128;-53
2021/08/13 03:30:21;;;;;;;20.70;16.70;;;;;;;25.04;100.00;96732.22;4997001;28;20550;-54
2021/08/13 03:32:49;;;;;;;19.25;16.75;;;;;;;24.97;100.00;96730.69;4998953;28;20457;-53
2021/08/13 03:35:18;;;;;;;21.50;16.42;;;;;;;25.22;100.00;96728.66;4995770;28;20073;-55
2021/08/13 03:37:47;;;;;;;24.30;16.15;;;;;;;24.80;100.00;96736.69;4984507;28;20066;-55
2021/08/13 03:40:15;;;;;;;17.83;16.02;;;;;;;24.31;100.00;96738.53;5004137;28;20088;-53
2021/08/13 03:42:46;;;;;;;19.58;16.65;;;;;;;24.85;100.00;96734.16;4984316;28;20525;-55
2021/08/13 03:45:15;;;;;;;18.10;15.98;;;;;;;24.93;100.00;96735.72;4997030;28;20077;-54
2021/08/13 03:47:43;;;;;;;19.95;16.42;;;;;;;24.95;100.00;96730.06;5001949;28;20073;-56
2021/08/13 03:50:12;;;;;;;24.35;16.75;;;;;;;25.24;100.00;96737.38;5001493;28;20538;-53
2021/08/13 03:52:41;;;;;;;20.42;15.82;;;;;;;25.07;100.00;96733.66;5008698;28;20093;-55
2021/08/13 03:55:13;;;;;;;21.15;15.68;;;;;;;25.13;100.00;96735.47;5004963;28;21578;-54
2021/08/13 03:57:41;;;;;;;17.77;15.27;;;;;;;25.20;100.00;96732.66;5001478;28;20073;-53
2021/08/13 04:00:12;;;;;;;18.50;15.98;;;;;;;25.04;100.00;96740.31;5000864;28;20088;-52
2021/08/13 04:02:41;;;;;;;19.83;15.75;;;;;;;25.33;100.00;96736.00;5004340;28;20073;-54
2021/08/13 04:05:11;;;;;;;18.73;14.52;;;;;;;25.65;100.00;96738.38;4999298;28;20069;-56
2021/08/13 04:07:39;;;;;;;21.02;15.27;;;;;;;25.52;100.00;96752.09;5008094;28;20081;-55
2021/08/13 04:10:08;;;;;;;23.80;15.32;;;;;;;25.70;100.00;96753.88;4998095;28;20452;-56
2021/08/13 04:12:37;;;;;;;21.13;14.63;;;;;;;25.47;100.00;96760.09;5003606;28;20074;-53
2021/08/13 04:15:06;;;;;;;18.38;15.05;;;;;;;24.97;100.00;96761.19;5005537;28;20073;-54
2021/08/13 04:17:36;;;;;;;17.55;14.40;;;;;;;25.01;100.00;96766.94;4999079;28;20081;-54
2021/08/13 04:20:06;;;;;;;19.77;15.30;;;;;;;25.77;100.00;96768.09;5002518;28;20066;-53
2021/08/13 04:22:34;;;;;;;18.03;14.20;;;;;;;25.44;100.00;96766.78;5004227;28;20078;-54
2021/08/13 04:25:04;;;;;;;17.10;14.18;;;;;;;25.80;100.00;96767.66;5001259;28;20070;-53
2021/08/13 04:27:33;;;;;;;19.85;14.68;;;;;;;25.88;100.00;96769.19;5006171;28;20061;-56
2021/08/13 04:30:01;;;;;;;17.23;14.15;;;;;;;25.87;100.00;96768.38;5004546;28;20556;-55
2021/08/13 04:32:29;;;;;;;18.05;14.35;;;;;;;25.77;100.00;96765.41;5005271;28;20077;-55
2021/08/13 04:34:59;;;;;;;15.93;13.88;;;;;;;25.97;100.00;96767.78;5002605;28;20088;-57
2021/08/13 04:37:28;;;;;;;17.02;13.32;;;;;;;25.66;100.00;96774.31;5005717;28;20085;-52
2021/08/13 04:39:56;;;;;;;15.98;13.27;;;;;;;26.31;100.00;96776.13;4999212;28;20065;-55
2021/08/13 04:42:24;;;;;;;15.50;13.55;;;;;;;26.04;100.00;96776.59;5003276;28;20080;-54
2021/08/13 04:44:53;;;;;;;17.90;12.98;;;;;;;26.39;100.00;96773.06;5009168;28;20150;-56
2021/08/13 04:47:36;;;;;;;16.13;13.07;;;;;;;26.91;100.00;96783.91;5008060;28;20201;-54
2021/08/13 04:50:07;;;;;;;14.98;12.25;;;;;;;26.19;100.00;96778.84;5012154;28;20100;-56
2021/08/13 04:52:42;;;;;;;;;;;;;;;26.19;100.00;96779.69;5008094;28;20070;-56
2021/08/13 04:55:11;;;;;;;13.80;12.25;;;;;;;26.35;100.00;96775.41;5010266;28;20540;-55
2021/08/13 04:57:39;;;;;;;17.80;12.57;;;;;;;26.52;100.00;96775.53;5004581;28;20069;-55
2021/08/13 05:00:08;;;;;;;14.38;12.85;;;;;;;26.26;100.00;96783.09;5006362;28;20536;-56
2021/08/13 05:02:36;;;;;;;16.90;12.40;;;;;;;26.24;100.00;96787.06;5006728;28;20559;-55
2021/08/13 05:05:07;;;;;;;15.75;12.38;;;;;;;26.44;100.00;96784.00;5005649;28;20069;-54
2021/08/13 05:07:36;;;;;;;14.80;11.73;;;;;;;27.23;100.00;96789.72;5005613;28;20081;-55
2021/08/13 05:10:09;;;;;;;13.90;12.13;;;;;;;27.04;100.00;96790.94;5011744;28;20092;-57
2021/08/13 05:12:38;;;;;;;13.13;11.70;;;;;;;27.66;100.00;96783.69;5008574;28;20072;-53
2021/08/13 05:15:07;;;;;;;12.63;11.32;;;;;;;28.59;100.00;96775.91;5008873;28;20081;-53
2021/08/13 05:17:36;;;;;;;15.63;11.45;;;;;;;28.62;100.00;96777.31;5003682;28;20461;-53
2021/08/13 05:20:08;;;;;;;12.85;10.93;;;;;;;29.67;92.23;96775.25;5007604;28;20072;-56
2021/08/13 05:22:36;;;;;;;12.73;11.15;;;;;;;28.95;95.00;96786.41;5007372;28;20066;-55
2021/08/13 05:25:07;;;;;;;14.48;10.50;;;;;;;29.54;93.15;96779.16;5009216;28;20069;-55
2021/08/13 05:27:36;;;;;;;13.75;10.85;;;;;;;29.19;94.07;96784.25;5010098;28;20069;-55
2021/08/13 05:30:05;;;;;;;14.27;11.55;;;;;;;28.56;100.00;96778.31;5004875;28;20065;-55
2021/08/13 05:32:39;;;;;;;13.77;11.25;;;;;;;27.59;100.00;96779.50;5011635;28;20135;-51
2021/08/13 05:35:10;;;;;;;12.27;10.80;;;;;;;28.29;100.00;96781.72;5007057;28;20065;-56
2021/08/13 05:37:38;;;;;;;12.73;11.43;;;;;;;28.56;100.00;96783.72;5008541;28;20543;-55
2021/08/13 05:40:09;;;;;;;16.58;12.30;;;;;;;28.42;100.00;96783.28;5007704;28;20394;-55
2021/08/13 05:42:38;;;;;;;15.10;11.25;;;;;;;28.02;100.00;96800.59;5011020;28;20069;-57
2021/08/13 05:45:08;;;;;;;16.30;11.90;;;;;;;28.64;100.00;96805.03;5009668;28;20519;-54
2021/08/13 05:47:38;;;;;;;14.73;11.98;;;;;;;28.87;100.00;96812.09;5005397;28;20065;-57
2021/08/13 05:50:10;;;;;;;15.68;11.68;;;;;;;28.93;100.00;96819.22;5006680;28;20073;-57
2021/08/13 05:52:39;;;;;;;13.32;11.75;;;;;;;28.24;100.00;96816.09;5009288;28;20074;-57
2021/08/13 05:55:08;;;;;;;14.02;12.02;;;;;;;28.97;100.00;96816.81;5003898;28;20452;-52
2021/08/13 05:57:36;;;;;;;13.35;11.48;;;;;;;29.11;100.00;96818.09;5007945;28;20092;-55
2021/08/13 06:00:06;;;;;;;15.07;11.27;;;;;;;29.20;100.00;96816.59;5005100;28;20069;-59
2021/08/13 06:02:35;;;;;;;13.25;11.43;;;;;;;29.92;96.28;96826.28;5002549;28;20061;-51
2021/08/13 06:05:04;;;;;;;15.13;11.52;;;;;;;29.30;100.00;96826.75;5006588;28;20076;-57
2021/08/13 06:07:34;;;;;;;13.70;11.82;;;;;;;29.53;100.00;96834.63;5010823;28;20603;-54
2021/08/13 06:10:03;;;;;;;12.50;10.68;;;;;;;30.04;94.47;96847.88;5003607;28;20076;-55
2021/08/13 06:12:31;;;;;;;11.55;9.90;;;;;;;28.96;100.00;96854.03;5003201;28;20081;-57
2021/08/13 06:15:00;;;;;;;14.70;10.52;;;;;;;28.73;100.00;96848.81;5007090;28;20066;-56
2021/08/13 06:17:31;;;;;;;16.50;10.48;;;;;;;29.51;99.73;96847.63;5005426;28;20074;-56
2021/08/13 06:20:00;;;;;;;12.05;10.00;;;;;;;29.14;100.00;96849.38;5004690;28;20058;-56
2021/08/13 06:22:28;;;;;;;18.02;10.13;;;;;;;29.93;95.63;96844.25;5007033;28;20084;-56
2021/08/13 06:24:58;;;;;;;13.27;10.35;;;;;;;28.45;100.00;96837.03;5004523;28;20065;-55
2021/08/13 06:27:26;;;;;;;16.95;10.45;;;;;;;29.35;100.00;96821.34;5001454;28;20072;-56
2021/08/13 06:29:55;;;;;;;14.32;10.60;;;;;;;29.57;100.00;96826.75;4988780;28;20088;-55
2021/08/13 06:32:24;;;;;;;11.95;9.75;;;;;;;29.72;100.00;96823.41;4986090;28;20074;-53
2021/08/13 06:34:52;;;;;;;13.52;9.88;;;;;;;28.70;100.00;96824.91;4981000;28;20046;-53
2021/08/13 06:37:21;;;;;;;15.30;10.07;;;;;;;28.93;100.00;96827.38;5006361;28;20082;-54
2021/08/13 06:39:49;;;;;;;13.55;9.73;;;;;;;29.43;100.00;96831.78;5004314;28;20065;-56
2021/08/13 06:42:19;;;;;;;12.18;10.48;;;;;;;29.84;100.00;96831.41;5002226;28;20088;-57
2021/08/13 06:44:47;;;;;;;10.75;9.65;;;;;;;30.43;99.83;96839.50;4997104;28;20066;-57
2021/08/13 06:47:16;;;;;;;13.57;10.13;;;;;;;30.29;96.39;96844.56;5006073;28;20516;-47
2021/08/13 06:49:45;;;;;;;12.10;9.60;;;;;;;29.10;100.00;96858.03;5009401;28;20047;-52
2021/08/13 06:52:13;;;;;;;12.63;9.80;;;;;;;30.77;96.19;96858.25;5008888;28;20453;-52
2021/08/13 06:54:42;;;;;;;13.27;9.57;;;;;;;30.34;100.00;96865.56;4989995;28;20038;-56
2021/08/13 06:57:10;;;;;;;11.45;9.70;;;;;;;30.24;95.61;96864.38;4979192;28;20066;-54
2021/08/13 06:59:40;;;;;;;12.90;8.40;;;;;;;29.64;100.00;96878.25;4979100;28;20078;-58
2021/08/13 07:02:08;;;;;;;11.73;9.10;;;;;;;30.84;100.00;96867.81;4981744;28;20065;-58
2021/08/13 07:04:37;;;;;;;12.43;9.15;;;;;;;30.69;100.00;96875.84;5010961;28;20523;-58
2021/08/13 07:07:05;;;;;;;11.95;9.07;;;;;;;30.64;97.62;96868.47;5000813;28;20089;-56
2021/08/13 07:09:35;;;;;;;10.35;9.25;;;;;;;30.87;93.17;96880.09;5014827;28;20046;-55
2021/08/13 07:12:04;;;;;;;11.20;9.05;;;;;;;30.55;94.73;96886.38;5013232;28;20073;-57
2021/08/13 07:14:32;;;;;;;12.52;9.10;;;;;;;30.30;100.00;96881.59;5006193;28;20077;-50
2021/08/13 07:17:02;;;;;;;11.90;8.75;;;;;;;31.16;88.78;96877.78;5004992;28;20085;-56
2021/08/13 07:19:32;;;;;;;11.80;8.60;;;;;;;30.63;92.96;96883.19;5004397;28;20085;-49
2021/08/13 07:22:01;;;;;;;11.07;8.35;;;;;;;31.11;90.01;96886.75;4999657;28;20081;-53
2021/08/13 07:24:30;;;;;;;10.57;8.15;;;;;;;31.29;80.64;96882.72;5006921;28;20101;-58
2021/08/13 07:26:59;;;;;;;10.73;8.07;;;;;;;31.46;77.97;96890.72;5003305;28;20524;-53
2021/08/13 07:29:27;;;;;;;10.27;8.40;;;;;;;31.84;81.58;96900.38;4998965;28;20069;-51
2021/08/13 07:31:57;;;;;;;12.80;8.98;;;;;;;32.06;78.20;96900.13;5000674;28;20488;-50
2021/08/13 07:34:27;;;;;;;13.07;8.88;;;;;;;32.55;73.21;96893.34;4986478;28;20086;-54
2021/08/13 07:36:55;;;;;;;13.30;8.45;;;;;;;32.94;70.28;96893.56;5002307;28;20495;-53
2021/08/13 07:39:37;;;;;;;13.68;8.80;;;;;;;32.55;74.10;96896.88;5006415;28;20077;-51
2021/08/13 07:42:05;;;;;;;13.82;9.13;;;;;;;32.17;77.22;96900.16;5001315;28;20539;-54
2021/08/13 07:44:34;;;;;;;10.40;8.30;;;;;;;32.01;83.24;96899.34;5005761;28;20070;-53
2021/08/13 07:47:11;;;;;;;13.45;8.68;;;;;;;31.24;89.73;96898.22;5005015;28;20069;-55
2021/08/13 07:49:41;;;;;;;17.20;9.05;;;;;;;31.64;83.68;96895.69;5005487;28;20134;-50
2021/08/13 07:52:09;;;;;;;;;;;;;;;30.98;84.29;96893.50;5016300;28;20030;-51
2021/08/13 07:54:38;;;;;;;9.95;8.07;;;;;;;31.38;89.21;96889.34;4999105;28;20387;-54
2021/08/13 07:57:07;;;;;;;11.23;8.75;;;;;;;31.15;87.40;96889.75;5004259;28;20093;-48
2021/08/13 07:59:36;;;;;;;14.50;8.80;;;;;;;31.78;85.24;96889.72;5001413;28;20066;-51
2021/08/13 08:02:05;;;;;;;16.23;8.75;;;;;;;31.44;86.11;96888.25;5000208;28;20072;-51
2021/08/13 08:04:34;;;;;;;11.00;9.02;;;;;;;32.33;80.24;96894.41;5005617;28;20483;-52
2021/08/13 08:07:04;;;;;;;12.73;8.70;;;;;;;32.30;73.88;96891.41;5004510;28;20081;-53
2021/08/13 08:09:33;;;;;;;9.25;7.88;;;;;;;32.17;77.03;96892.78;5006271;28;20069;-54
2021/08/13 08:12:01;;;;;;;10.35;8.32;;;;;;;32.93;65.26;96894.63;5004979;28;20065;-53
2021/08/13 08:14:29;;;;;;;14.02;8.15;;;;;;;32.62;66.39;96888.41;5002000;28;20077;-53
2021/08/13 08:16:58;;;;;;;13.02;8.32;;;;;;;33.32;65.68;96885.78;5003957;28;20078;-56
2021/08/13 08:19:26;;;;;;;8.93;7.68;;;;;;;32.53;62.18;96888.16;5005554;28;20092;-56
2021/08/13 08:21:55;;;;;;;13.55;8.63;;;;;;;33.94;57.31;96887.13;5001127;28;20516;-55
2021/08/13 08:24:24;;;;;;;12.23;8.18;;;;;;;33.20;63.64;96898.94;5005736;28;20073;-55
2021/08/13 08:26:53;;;;;;;13.38;8.40;;;;;;;33.32;63.58;96902.19;5015463;28;20088;-50
2021/08/13 08:29:22;;;;;;;11.70;8.68;;;;;;;33.23;58.99;96896.47;5010837;28;20065;-54
2021/08/13 08:31:50;;;;;;;14.80;8.65;;;;;;;33.99;61.86;96891.72;5014322;28;20532;-54
2021/08/13 08:34:19;;;;;;;10.30;8.20;;;;;;;33.81;65.63;96895.94;5008194;28;20192;-52
2021/08/13 08:36:47;;;;;;;12.15;8.45;;;;;;;33.95;61.07;96893.41;5001258;28;20058;-50
2021/08/13 08:39:15;;;;;;;13.73;8.77;;;;;;;34.06;55.54;96894.16;5010921;28;20058;-55
2021/08/13 08:41:45;;;;;;;13.10;8.63;;;;;;;33.17;60.70;96902.25;5008158;28;20473;-58
2021/08/13 08:44:14;;;;;;;11.15;8.95;;;;;;;33.75;59.52;96914.31;5008376;28;20053;-57
2021/08/13 08:46:45;;;;;;;10.93;8.57;;;;;;;33.48;60.12;96913.91;5005002;28;20066;-56
2021/08/13 08:49:14;;;;;;;13.93;8.70;;;;;;;34.10;57.84;96917.13;4984090;28;20549;-53
2021/08/13 08:51:43;;;;;;;9.45;8.50;;;;;;;34.42;53.28;96911.97;5005942;28;20956;-56
2021/08/13 08:54:12;;;;;;;11.07;8.50;;;;;;;34.68;52.22;96912.56;5009216;28;20041;-51
2021/08/13 08:56:42;;;;;;;13.20;9.15;;;;;;;34.96;54.16;96913.66;5006891;28;20057;-56
2021/08/13 08:59:12;;;;;;;10.27;9.18;;;;;;;34.60;52.11;96920.59;5009926;28;20064;-55
2021/08/13 09:01:45;;;;;;;11.60;8.98;;;;;;;33.66;56.35;96917.94;5008438;28;20080;-52
2021/08/13 09:04:14;;;;;;;17.67;12.03;;;;;;;34.49;52.73;96914.38;5013568;28;20074;-53
2021/08/13 09:06:43;;;;;;;11.93;8.23;;;;;;;34.52;54.93;96913.81;5003225;28;20555;-54
2021/08/13 09:09:13;;;;;;;11.60;9.05;;;;;;;34.79;53.26;96916.03;5011193;28;20455;-51
2021/08/13 09:11:42;;;;;;;11.13;8.90;;;;;;;34.92;50.75;96915.34;5004639;28;20076;-58
2021/08/13 09:14:13;;;;;;;10.13;8.73;;;;;;;34.11;51.92;96918.78;5011718;28;20065;-54
2021/08/13 09:17:00;;;;;;;11.90;8.55;;;;;;;34.96;49.67;96913.66;5001092;28;20081;-47
2021/08/13 09:19:39;;;;;;;13.55;8.63;;;;;;;34.19;53.35;96912.69;5008185;28;21380;-49
2021/08/13 09:22:09;;;;;;;10.83;8.90;;;;;;;33.99;52.52;96917.16;5007442;28;21584;-55
2021/08/13 09:24:40;;;;;;;9.52;8.45;;;;;;;33.86;53.42;96904.13;5007517;28;20085;-54
2021/08/13 09:27:19;;;;;;;12.60;8.55;;;;;;;34.63;55.48;96906.31;5010248;28;20539;-56
2021/08/13 09:30:09;;;;;;;10.83;8.93;;;;;;;35.40;50.41;96906.31;5005417;28;20065;-52
2021/08/13 09:32:38;;;;;;;11.50;8.43;;;;;;;35.20;50.29;96910.13;5006280;28;20563;-53
2021/08/13 09:35:07;;;;;;;13.93;9.18;;;;;;;35.60;49.08;96913.50;5014280;28;20095;-56
2021/08/13 09:37:37;;;;;;;13.10;8.33;;;;;;;35.81;47.15;96911.31;5005928;28;20073;-51
2021/08/13 09:40:07;;;;;;;8.98;8.05;;;;;;;36.18;44.58;96910.50;5008307;28;20072;-55
2021/08/13 09:42:36;;;;;;;;;;;;;;;35.12;46.77;96899.81;5006315;28;20070;-57
2021/08/13 09:45:06;;;;;;;10.73;8.38;;;;;;;36.34;44.32;96897.31;5014063;28;19967;-50
2021/08/13 09:47:41;;;;;;;11.98;8.52;;;;;;;35.93;42.75;96895.22;5009331;28;20069;-55
2021/08/13 09:50:10;;;;;;;12.57;8.77;;;;;;;35.23;45.03;96889.53;5007676;28;20084;-52
2021/08/13 09:52:39;;;;;;;9.43;8.40;;;;;;;36.51;45.00;96896.78;5009225;28;20065;-54
2021/08/13 09:55:11;;;;;;;11.63;8.50;;;;;;;36.83;44.18;96884.97;4990591;28;20530;-48
2021/08/13 09:57:41;;;;;;;10.85;8.23;;;;;;;35.53;43.43;96880.13;5014470;28;20077;-56
2021/08/13 10:00:11;;;;;;;11.75;8.57;;;;;;;35.59;44.60;96889.94;5006886;28;20076;-48
2021/08/13 10:02:42;;;;;;;11.77;8.00;;;;;;;36.08;44.47;96892.25;5006397;28;20073;-51
2021/08/13 10:05:19;;;;;;;12.20;7.80;;;;;;;35.67;42.59;96884.59;5002874;28;20049;-52
2021/08/13 10:07:52;;;;;;;11.88;8.38;;;;;;;36.73;43.22;96896.97;5010536;28;20471;-51
2021/08/13 10:10:26;;;;;;;10.20;8.38;;;;;;;36.68;42.09;96894.28;4990762;28;20082;-57
2021/08/13 10:12:55;;;;;;;12.68;8.38;;;;;;;36.48;41.42;96898.25;5002445;28;20693;-55
2021/08/13 10:15:34;;;;;;;10.25;7.63;;;;;;;36.65;40.11;96900.41;5001939;28;20110;-50
2021/08/13 10:18:05;;;;;;;;;;;;;;;36.62;41.00;96892.78;5010486;28;20080;-54
2021/08/13 10:20:35;;;;;;;10.82;7.50;;;;;;;37.00;40.45;96895.41;5004477;28;19971;-56
2021/08/13 10:23:04;;;;;;;11.10;7.43;;;;;;;37.27;41.88;96895.41;5008228;28;20065;-57
2021/08/13 10:25:32;;;;;;;7.88;6.90;;;;;;;36.70;41.68;96896.75;5009562;28;20100;-52
2021/08/13 10:28:01;;;;;;;9.15;6.05;;;;;;;37.02;37.96;96891.22;5007926;28;20487;-56
2021/08/13 10:30:29;;;;;;;11.77;6.45;;;;;;;36.84;40.77;96897.59;5007623;28;20092;-52
2021/08/13 10:33:01;;;;;;;10.18;6.32;;;;;;;36.08;40.21;96895.00;5009846;28;20074;-50
2021/08/13 10:35:34;;;;;;;10.52;6.78;;;;;;;37.96;37.22;96886.25;5007195;28;20065;-53
2021/08/13 10:38:03;;;;;;;12.18;6.40;;;;;;;36.74;38.29;96875.78;5007201;28;20070;-54
2021/08/13 10:40:33;;;;;;;10.70;6.30;;;;;;;37.89;36.21;96888.56;4991667;28;20089;-52
2021/08/13 10:43:03;;;;;;;8.85;5.60;;;;;;;38.08;36.46;96880.19;5003925;28;20076;-55
2021/08/13 10:45:33;;;;;;;6.60;5.50;;;;;;;37.78;37.17;96875.03;5001090;28;20065;-54
2021/08/13 10:48:06;;;;;;;9.00;5.70;;;;;;;38.09;36.34;96876.31;5010329;28;20563;-53
2021/08/13 10:50:36;;;;;;;9.30;5.05;;;;;;;36.65;38.51;96874.84;5005293;28;20069;-51
2021/08/13 10:53:24;;;;;;;8.48;4.55;;;;;;;35.84;38.39;96883.25;5009011;28;20065;-54
2021/08/13 10:55:53;;;;;;;8.80;3.88;;;;;;;35.00;40.80;96877.44;5006874;28;20085;-54
2021/08/13 10:58:43;;;;;;;6.93;3.97;;;;;;;34.32;38.78;96875.63;5021376;28;21042;-53
2021/08/13 11:01:13;;;;;;;6.82;3.65;;;;;;;34.37;39.50;96878.31;4986426;28;20464;-56
2021/08/13 11:03:42;;;;;;;6.70;3.85;;;;;;;35.44;40.08;96868.97;4986314;28;20062;-59
2021/08/13 11:06:12;;;;;;;5.97;3.63;;;;;;;36.27;39.24;96872.16;4991200;28;20520;-52
2021/08/13 11:08:57;;;;;;;;;;;;;;;35.95;38.36;96865.50;5011437;28;20072;-52
2021/08/13 11:12:05;;;;;;;7.95;4.20;;;;;;;35.91;38.38;96856.25;5010682;28;19971;-53
2021/08/13 11:14:35;;;;;;;7.85;4.07;;;;;;;36.06;36.07;96864.25;5010957;28;20084;-53
2021/08/13 11:17:04;;;;;;;7.85;3.88;;;;;;;35.83;36.96;96862.44;5007293;28;20072;-50
2021/08/13 11:19:57;;;;;;;9.88;4.22;;;;;;;36.35;39.97;96855.84;5017417;28;20379;-51
2021/08/13 11:22:31;;;;;;;5.72;4.03;;;;;;;35.51;39.09;96854.88;5019352;28;20181;-52
2021/08/13 11:25:00;;;;;;;8.57;4.40;;;;;;;36.79;38.60;96854.53;5012570;28;20080;-51
2021/08/13 11:27:28;;;;;;;7.18;4.20;;;;;;;37.38;37.50;96857.50;5004348;28;20080;-53
2021/08/13 11:29:57;;;;;;;11.20;4.35;;;;;;;37.11;36.26;96844.56;5016795;28;20822;-56
2021/08/13 11:32:31;;;;;;;10.32;3.88;;;;;;;36.21;39.37;96859.66;5019395;28;20065;-55